sensor_id;sensor_type;location;lat;lon;timestamp;pressure;altitude;pressure_sealevel;temperature;humidity
84959;BME280;75256;48.062;11.662;2024-02-23T00:00:04;93490.59;;;6.25;90.76
84959;BME280;75256;48.062;11.662;2024-02-23T00:02:31;93489.63;;;6.37;90.97
84959;BME280;75256;48.062;11.662;2024-02-23T00:04:57;93501.34;;;6.43;90.05
84959;BME280;75256;48.062;11.662;2024-02-23T00:07:25;93492.75;;;6.21;91.21
84959;BME280;75256;48.062;11.662;2024-02-23T00:09:53;93495.59;;;6.26;90.93
84959;BME280;75256;48.062;11.662;2024-02-23T00:12:21;93489.16;;;6.15;91.32
84959;BME280;75256;48.062;11.662;2024-02-23T00:14:48;93480.81;;;6.27;90.78
84959;BME280;75256;48.062;11.662;2024-02-23T00:17:18;93488.66;;;6.25;89.59
84959;BME280;75256;48.062;11.662;2024-02-23T00:19:45;93490.09;;;6.36;88.78
84959;BME280;75256;48.062;11.662;2024-02-23T00:22:12;93489.28;;;6.20;89.75
84959;BME280;75256;48.062;11.662;2024-02-23T00:24:37;93496.59;;;6.29;89.27
84959;BME280;75256;48.062;11.662;2024-02-23T00:27:05;93509.47;;;6.19;89.16
84959;BME280;75256;48.062;11.662;2024-02-23T00:29:30;93502.13;;;6.11;89.51
84959;BME280;75256;48.062;11.662;2024-02-23T00:31:56;93493.09;;;6.14;88.58
84959;BME280;75256;48.062;11.662;2024-02-23T00:34:23;93490.19;;;5.94;90.34
84959;BME280;75256;48.062;11.662;2024-02-23T00:36:51;93488.28;;;5.85;90.10
84959;BME280;75256;48.062;11.662;2024-02-23T00:39:17;93475.06;;;6.11;88.99
84959;BME280;75256;48.062;11.662;2024-02-23T00:41:44;93487.19;;;5.92;89.21
84959;BME280;75256;48.062;11.662;2024-02-23T00:44:12;93476.97;;;5.87;90.89
84959;BME280;75256;48.062;11.662;2024-02-23T00:46:40;93497.59;;;5.84;90.52
84959;BME280;75256;48.062;11.662;2024-02-23T00:49:06;93494.16;;;5.84;90.33
84959;BME280;75256;48.062;11.662;2024-02-23T00:51:31;93501.19;;;5.81;90.05
84959;BME280;75256;48.062;11.662;2024-02-23T00:53:57;93500.31;;;5.75;89.15
84959;BME280;75256;48.062;11.662;2024-02-23T00:56:22;93507.50;;;5.78;90.38
84959;BME280;75256;48.062;11.662;2024-02-23T00:58:50;93515.06;;;5.74;91.18
84959;BME280;75256;48.062;11.662;2024-02-23T01:01:18;93503.94;;;5.72;91.76
84959;BME280;75256;48.062;11.662;2024-02-23T01:03:44;93509.19;;;5.76;90.77
84959;BME280;75256;48.062;11.662;2024-02-23T01:06:09;93499.91;;;5.68;91.58
84959;BME280;75256;48.062;11.662;2024-02-23T01:08:37;93511.75;;;5.70;90.60
84959;BME280;75256;48.062;11.662;2024-02-23T01:11:02;93531.75;;;5.73;91.34
84959;BME280;75256;48.062;11.662;2024-02-23T01:13:30;93526.34;;;5.73;90.53
84959;BME280;75256;48.062;11.662;2024-02-23T01:15:55;93517.34;;;5.67;90.76
84959;BME280;75256;48.062;11.662;2024-02-23T01:18:23;93514.72;;;5.81;89.47
84959;BME280;75256;48.062;11.662;2024-02-23T01:20:48;93549.31;;;5.86;89.81
84959;BME280;75256;48.062;11.662;2024-02-23T01:23:14;93525.28;;;5.70;90.14
84959;BME280;75256;48.062;11.662;2024-02-23T01:25:39;93526.94;;;5.77;89.06
84959;BME280;75256;48.062;11.662;2024-02-23T01:28:10;93533.66;;;5.90;87.75
84959;BME280;75256;48.062;11.662;2024-02-23T01:30:40;93544.25;;;5.70;88.25
84959;BME280;75256;48.062;11.662;2024-02-23T01:33:09;93546.09;;;5.55;89.14
84959;BME280;75256;48.062;11.662;2024-02-23T01:35:35;93537.19;;;5.64;88.70
84959;BME280;75256;48.062;11.662;2024-02-23T01:38:03;93536.91;;;5.53;88.55
84959;BME280;75256;48.062;11.662;2024-02-23T01:40:28;93557.00;;;5.70;88.12
84959;BME280;75256;48.062;11.662;2024-02-23T01:43:20;93548.13;;;5.78;87.20
84959;BME280;75256;48.062;11.662;2024-02-23T01:45:45;93545.47;;;5.60;88.99
84959;BME280;75256;48.062;11.662;2024-02-23T01:48:11;93567.13;;;5.69;87.93
84959;BME280;75256;48.062;11.662;2024-02-23T01:50:37;93555.38;;;5.63;88.05
84959;BME280;75256;48.062;11.662;2024-02-23T01:53:02;93553.00;;;5.56;89.15
84959;BME280;75256;48.062;11.662;2024-02-23T01:55:31;93550.03;;;5.45;89.24
84959;BME280;75256;48.062;11.662;2024-02-23T01:57:59;93547.91;;;5.49;89.10
84959;BME280;75256;48.062;11.662;2024-02-23T02:00:26;93558.44;;;5.47;89.98
84959;BME280;75256;48.062;11.662;2024-02-23T02:02:52;93556.31;;;5.51;89.42
84959;BME280;75256;48.062;11.662;2024-02-23T02:05:17;93542.94;;;5.57;88.35
84959;BME280;75256;48.062;11.662;2024-02-23T02:07:44;93543.53;;;5.61;87.89
84959;BME280;75256;48.062;11.662;2024-02-23T02:10:12;93542.16;;;5.56;87.57
84959;BME280;75256;48.062;11.662;2024-02-23T02:12:38;93536.75;;;5.56;87.77
84959;BME280;75256;48.062;11.662;2024-02-23T02:15:04;93544.44;;;5.58;86.29
84959;BME280;75256;48.062;11.662;2024-02-23T02:17:29;93536.91;;;5.53;88.21
84959;BME280;75256;48.062;11.662;2024-02-23T02:19:55;93552.38;;;5.61;86.73
84959;BME280;75256;48.062;11.662;2024-02-23T02:22:23;93552.38;;;5.61;86.19
84959;BME280;75256;48.062;11.662;2024-02-23T02:24:49;93553.03;;;5.47;86.45
84959;BME280;75256;48.062;11.662;2024-02-23T02:27:17;93561.47;;;5.40;86.78
84959;BME280;75256;48.062;11.662;2024-02-23T02:29:44;93559.63;;;5.55;85.61
84959;BME280;75256;48.062;11.662;2024-02-23T02:32:09;93554.97;;;5.56;85.88
84959;BME280;75256;48.062;11.662;2024-02-23T02:34:35;93554.38;;;5.52;85.59
84959;BME280;75256;48.062;11.662;2024-02-23T02:37:00;93571.03;;;5.59;83.53
84959;BME280;75256;48.062;11.662;2024-02-23T02:39:29;93567.16;;;5.42;85.21
84959;BME280;75256;48.062;11.662;2024-02-23T02:41:54;93563.25;;;5.52;84.43
84959;BME280;75256;48.062;11.662;2024-02-23T02:44:19;93566.69;;;5.53;84.31
84959;BME280;75256;48.062;11.662;2024-02-23T02:46:45;93577.97;;;5.51;84.26
84959;BME280;75256;48.062;11.662;2024-02-23T02:49:11;93579.94;;;5.51;83.86
84959;BME280;75256;48.062;11.662;2024-02-23T02:51:39;93573.47;;;5.48;84.55
84959;BME280;75256;48.062;11.662;2024-02-23T02:54:07;93577.84;;;5.46;84.04
84959;BME280;75256;48.062;11.662;2024-02-23T02:56:35;93589.38;;;5.46;84.29
84959;BME280;75256;48.062;11.662;2024-02-23T02:59:00;93595.41;;;5.50;84.73
84959;BME280;75256;48.062;11.662;2024-02-23T03:01:26;93579.19;;;5.41;83.95
84959;BME280;75256;48.062;11.662;2024-02-23T03:03:51;93569.38;;;5.53;83.67
84959;BME280;75256;48.062;11.662;2024-02-23T03:06:16;93580.09;;;5.38;83.44
84959;BME280;75256;48.062;11.662;2024-02-23T03:08:42;93580.41;;;5.40;83.29
84959;BME280;75256;48.062;11.662;2024-02-23T03:11:08;93586.84;;;5.43;82.80
84959;BME280;75256;48.062;11.662;2024-02-23T03:13:35;93578.91;;;5.21;84.63
84959;BME280;75256;48.062;11.662;2024-02-23T03:16:01;93589.28;;;5.23;84.96
84959;BME280;75256;48.062;11.662;2024-02-23T03:18:26;93586.56;;;5.23;84.65
84959;BME280;75256;48.062;11.662;2024-02-23T03:20:53;93571.56;;;5.31;84.47
84959;BME280;75256;48.062;11.662;2024-02-23T03:23:23;93579.97;;;5.24;84.65
84959;BME280;75256;48.062;11.662;2024-02-23T03:25:51;93584.78;;;5.20;83.81
84959;BME280;75256;48.062;11.662;2024-02-23T03:28:19;93578.03;;;5.24;84.28
84959;BME280;75256;48.062;11.662;2024-02-23T03:30:44;93579.22;;;5.05;84.66
84959;BME280;75256;48.062;11.662;2024-02-23T03:33:09;93577.41;;;5.20;84.57
84959;BME280;75256;48.062;11.662;2024-02-23T03:35:35;93587.03;;;5.21;84.08
84959;BME280;75256;48.062;11.662;2024-02-23T03:38:00;93584.91;;;5.25;84.16
84959;BME280;75256;48.062;11.662;2024-02-23T03:40:26;93583.28;;;5.19;84.20
84959;BME280;75256;48.062;11.662;2024-02-23T03:42:51;93580.00;;;5.05;84.97
84959;BME280;75256;48.062;11.662;2024-02-23T03:45:17;93591.53;;;5.15;84.45
84959;BME280;75256;48.062;11.662;2024-02-23T03:47:42;93580.88;;;4.93;85.48
84959;BME280;75256;48.062;11.662;2024-02-23T03:50:07;93585.09;;;5.03;84.54
84959;BME280;75256;48.062;11.662;2024-02-23T03:52:33;93578.31;;;4.99;85.20
84959;BME280;75256;48.062;11.662;2024-02-23T03:54:58;93578.00;;;4.79;85.77
84959;BME280;75256;48.062;11.662;2024-02-23T03:57:24;93585.25;;;5.00;84.74
84959;BME280;75256;48.062;11.662;2024-02-23T03:59:53;93589.28;;;4.86;85.16
84959;BME280;75256;48.062;11.662;2024-02-23T04:02:21;93595.13;;;4.94;85.38
84959;BME280;75256;48.062;11.662;2024-02-23T04:04:47;93595.75;;;4.98;85.13
84959;BME280;75256;48.062;11.662;2024-02-23T04:07:15;93590.91;;;4.84;85.51
84959;BME280;75256;48.062;11.662;2024-02-23T04:09:41;93609.28;;;5.07;84.52
84959;BME280;75256;48.062;11.662;2024-02-23T04:12:06;93595.75;;;4.98;85.21
84959;BME280;75256;48.062;11.662;2024-02-23T04:14:34;93600.38;;;4.79;86.46
84959;BME280;75256;48.062;11.662;2024-02-23T04:17:04;93604.75;;;4.77;86.60
84959;BME280;75256;48.062;11.662;2024-02-23T04:19:30;93616.44;;;4.74;86.70
84959;BME280;75256;48.062;11.662;2024-02-23T04:21:55;93616.16;;;4.72;86.43
84959;BME280;75256;48.062;11.662;2024-02-23T04:24:25;93606.19;;;4.51;86.21
84959;BME280;75256;48.062;11.662;2024-02-23T04:26:53;93615.81;;;4.61;86.38
84959;BME280;75256;48.062;11.662;2024-02-23T04:29:19;93607.34;;;4.32;87.40
84959;BME280;75256;48.062;11.662;2024-02-23T04:31:49;93615.19;;;4.48;87.41
84959;BME280;75256;48.062;11.662;2024-02-23T04:34:17;93609.16;;;4.44;87.28
84959;BME280;75256;48.062;11.662;2024-02-23T04:36:45;93607.53;;;4.07;88.96
84959;BME280;75256;48.062;11.662;2024-02-23T04:39:10;93615.81;;;4.03;88.30
84959;BME280;75256;48.062;11.662;2024-02-23T04:41:40;93614.78;;;4.19;88.06
84959;BME280;75256;48.062;11.662;2024-02-23T04:44:05;93618.78;;;3.96;88.75
84959;BME280;75256;48.062;11.662;2024-02-23T04:46:33;93610.28;;;4.16;88.28
84959;BME280;75256;48.062;11.662;2024-02-23T04:48:59;93614.91;;;4.06;87.67
84959;BME280;75256;48.062;11.662;2024-02-23T04:51:25;93612.66;;;4.05;89.28
84959;BME280;75256;48.062;11.662;2024-02-23T04:53:50;93616.09;;;4.05;89.49
84959;BME280;75256;48.062;11.662;2024-02-23T04:56:21;93604.66;;;3.92;89.92
84959;BME280;75256;48.062;11.662;2024-02-23T04:58:46;93615.69;;;3.85;91.24
84959;BME280;75256;48.062;11.662;2024-02-23T05:01:12;93615.13;;;3.90;91.34
84959;BME280;75256;48.062;11.662;2024-02-23T05:03:37;93619.03;;;3.89;90.84
84959;BME280;75256;48.062;11.662;2024-02-23T05:06:03;93615.88;;;3.91;91.48
84959;BME280;75256;48.062;11.662;2024-02-23T05:08:29;93621.94;;;4.04;90.95
84959;BME280;75256;48.062;11.662;2024-02-23T05:10:57;93621.34;;;4.00;91.55
84959;BME280;75256;48.062;11.662;2024-02-23T05:13:23;93613.41;;;4.05;91.59
84959;BME280;75256;48.062;11.662;2024-02-23T05:15:54;93616.53;;;3.95;92.17
84959;BME280;75256;48.062;11.662;2024-02-23T05:18:22;93617.31;;;4.04;91.48
84959;BME280;75256;48.062;11.662;2024-02-23T05:20:50;93628.56;;;4.12;92.11
84959;BME280;75256;48.062;11.662;2024-02-23T05:23:18;93621.81;;;4.07;92.50
84959;BME280;75256;48.062;11.662;2024-02-23T05:25:46;93619.59;;;4.15;93.24
84959;BME280;75256;48.062;11.662;2024-02-23T05:28:11;93614.16;;;4.06;93.32
84959;BME280;75256;48.062;11.662;2024-02-23T05:30:36;93621.22;;;4.03;93.00
84959;BME280;75256;48.062;11.662;2024-02-23T05:33:04;93625.25;;;4.08;93.28
84959;BME280;75256;48.062;11.662;2024-02-23T05:35:30;93621.41;;;4.18;92.92
84959;BME280;75256;48.062;11.662;2024-02-23T05:37:57;93618.13;;;4.23;92.79
84959;BME280;75256;48.062;11.662;2024-02-23T05:40:26;93634.31;;;4.23;93.46
84959;BME280;75256;48.062;11.662;2024-02-23T05:42:51;93623.66;;;4.19;92.94
84959;BME280;75256;48.062;11.662;2024-02-23T05:45:16;93611.63;;;4.11;92.20
84959;BME280;75256;48.062;11.662;2024-02-23T05:47:47;93612.53;;;4.08;92.50
84959;BME280;75256;48.062;11.662;2024-02-23T05:50:15;93619.56;;;4.06;93.35
84959;BME280;75256;48.062;11.662;2024-02-23T05:52:44;93629.47;;;4.09;93.80
84959;BME280;75256;48.062;11.662;2024-02-23T05:55:09;93628.72;;;4.08;93.63
84959;BME280;75256;48.062;11.662;2024-02-23T05:57:35;93637.25;;;4.07;93.10
84959;BME280;75256;48.062;11.662;2024-02-23T06:00:00;93629.59;;;4.05;92.93
84959;BME280;75256;48.062;11.662;2024-02-23T06:02:26;93629.00;;;4.01;93.28
84959;BME280;75256;48.062;11.662;2024-02-23T06:04:51;93629.31;;;4.03;92.43
84959;BME280;75256;48.062;11.662;2024-02-23T06:07:16;93627.34;;;4.04;93.01
84959;BME280;75256;48.062;11.662;2024-02-23T06:09:45;93643.41;;;4.07;92.29
84959;BME280;75256;48.062;11.662;2024-02-23T06:12:10;93654.00;;;4.02;91.51
84959;BME280;75256;48.062;11.662;2024-02-23T06:14:36;93652.06;;;4.02;92.17
84959;BME280;75256;48.062;11.662;2024-02-23T06:17:02;93648.22;;;4.12;91.52
84959;BME280;75256;48.062;11.662;2024-02-23T06:19:32;93648.47;;;4.05;92.17
84959;BME280;75256;48.062;11.662;2024-02-23T06:21:57;93651.63;;;4.04;91.35
84959;BME280;75256;48.062;11.662;2024-02-23T06:24:25;93660.69;;;4.10;91.43
84959;BME280;75256;48.062;11.662;2024-02-23T06:26:52;93667.81;;;4.04;91.25
84959;BME280;75256;48.062;11.662;2024-02-23T06:29:18;93673.78;;;3.99;92.35
84959;BME280;75256;48.062;11.662;2024-02-23T06:31:43;93673.31;;;3.91;91.66
84959;BME280;75256;48.062;11.662;2024-02-23T06:34:14;93674.88;;;4.01;92.26
84959;BME280;75256;48.062;11.662;2024-02-23T06:36:39;93679.97;;;3.99;92.69
84959;BME280;75256;48.062;11.662;2024-02-23T06:39:07;93679.81;;;4.03;91.56
84959;BME280;75256;48.062;11.662;2024-02-23T06:41:37;93674.44;;;4.03;91.70
84959;BME280;75256;48.062;11.662;2024-02-23T06:44:04;93680.28;;;4.01;90.39
84959;BME280;75256;48.062;11.662;2024-02-23T06:46:29;93674.25;;;3.97;89.79
84959;BME280;75256;48.062;11.662;2024-02-23T06:48:55;93665.09;;;3.95;89.90
84959;BME280;75256;48.062;11.662;2024-02-23T06:51:22;93670.13;;;3.83;89.08
84959;BME280;75256;48.062;11.662;2024-02-23T06:53:50;93678.84;;;3.88;90.12
84959;BME280;75256;48.062;11.662;2024-02-23T06:56:15;93668.38;;;3.90;90.83
84959;BME280;75256;48.062;11.662;2024-02-23T06:58:41;93660.16;;;3.93;91.28
84959;BME280;75256;48.062;11.662;2024-02-23T07:01:06;93668.97;;;3.94;90.28
84959;BME280;75256;48.062;11.662;2024-02-23T07:03:38;93671.34;;;3.92;90.78
84959;BME280;75256;48.062;11.662;2024-02-23T07:06:05;93676.50;;;3.99;90.04
84959;BME280;75256;48.062;11.662;2024-02-23T07:08:30;93679.06;;;4.02;90.82
84959;BME280;75256;48.062;11.662;2024-02-23T07:10:56;93676.94;;;3.97;89.81
84959;BME280;75256;48.062;11.662;2024-02-23T07:13:22;93681.44;;;4.00;90.78
84959;BME280;75256;48.062;11.662;2024-02-23T07:15:47;93680.16;;;4.05;90.54
84959;BME280;75256;48.062;11.662;2024-02-23T07:18:15;93683.34;;;3.91;89.91
84959;BME280;75256;48.062;11.662;2024-02-23T07:20:43;93701.34;;;3.94;90.66
84959;BME280;75256;48.062;11.662;2024-02-23T07:23:09;93707.06;;;3.96;90.63
84959;BME280;75256;48.062;11.662;2024-02-23T07:25:40;93708.06;;;4.11;90.22
84959;BME280;75256;48.062;11.662;2024-02-23T07:28:08;93698.72;;;4.03;88.38
84959;BME280;75256;48.062;11.662;2024-02-23T07:30:33;93700.22;;;4.04;90.65
84959;BME280;75256;48.062;11.662;2024-02-23T07:33:02;93706.84;;;4.12;89.83
84959;BME280;75256;48.062;11.662;2024-02-23T07:35:27;93712.25;;;4.12;90.01
84959;BME280;75256;48.062;11.662;2024-02-23T07:37:53;93711.84;;;4.13;90.36
84959;BME280;75256;48.062;11.662;2024-02-23T07:40:23;93720.91;;;4.07;89.01
84959;BME280;75256;48.062;11.662;2024-02-23T07:42:50;93727.53;;;4.06;89.58
84959;BME280;75256;48.062;11.662;2024-02-23T07:45:16;93717.81;;;4.08;89.26
84959;BME280;75256;48.062;11.662;2024-02-23T07:47:41;93709.56;;;4.12;89.36
84959;BME280;75256;48.062;11.662;2024-02-23T07:50:09;93709.56;;;4.12;88.17
84959;BME280;75256;48.062;11.662;2024-02-23T07:52:34;93701.41;;;4.03;88.50
84959;BME280;75256;48.062;11.662;2024-02-23T07:55:00;93710.13;;;4.07;88.74
84959;BME280;75256;48.062;11.662;2024-02-23T07:57:30;93709.56;;;4.12;88.75
84959;BME280;75256;48.062;11.662;2024-02-23T07:59:58;93707.81;;;4.18;89.75
84959;BME280;75256;48.062;11.662;2024-02-23T08:02:24;93700.16;;;4.16;87.64
84959;BME280;75256;48.062;11.662;2024-02-23T08:04:49;93697.47;;;4.25;89.38
84959;BME280;75256;48.062;11.662;2024-02-23T08:07:15;93686.28;;;4.36;87.49
84959;BME280;75256;48.062;11.662;2024-02-23T08:09:43;93693.19;;;4.37;88.32
84959;BME280;75256;48.062;11.662;2024-02-23T08:12:09;93682.72;;;4.48;87.48
84959;BME280;75256;48.062;11.662;2024-02-23T08:14:36;93680.03;;;4.48;85.87
84959;BME280;75256;48.062;11.662;2024-02-23T08:17:04;93677.94;;;4.52;86.85
84959;BME280;75256;48.062;11.662;2024-02-23T08:19:30;93682.91;;;4.62;85.79
84959;BME280;75256;48.062;11.662;2024-02-23T08:21:55;93694.81;;;4.74;81.94
84959;BME280;75256;48.062;11.662;2024-02-23T08:24:23;93691.22;;;4.86;85.20
84959;BME280;75256;48.062;11.662;2024-02-23T08:26:48;93673.84;;;4.87;85.53
84959;BME280;75256;48.062;11.662;2024-02-23T08:29:14;93686.09;;;4.79;85.14
84959;BME280;75256;48.062;11.662;2024-02-23T08:31:39;93684.66;;;4.87;86.16
84959;BME280;75256;48.062;11.662;2024-02-23T08:34:04;93685.97;;;4.82;85.83
84959;BME280;75256;48.062;11.662;2024-02-23T08:36:30;93683.13;;;4.86;86.72
84959;BME280;75256;48.062;11.662;2024-02-23T08:38:55;93673.22;;;4.83;86.95
84959;BME280;75256;48.062;11.662;2024-02-23T08:41:23;93669.13;;;4.69;83.93
84959;BME280;75256;48.062;11.662;2024-02-23T08:43:48;93680.56;;;4.73;84.15
84959;BME280;75256;48.062;11.662;2024-02-23T08:46:17;93669.13;;;4.69;84.62
84959;BME280;75256;48.062;11.662;2024-02-23T08:48:43;93673.94;;;4.74;83.75
84959;BME280;75256;48.062;11.662;2024-02-23T08:51:09;93660.56;;;4.62;84.02
84959;BME280;75256;48.062;11.662;2024-02-23T08:53:34;93680.22;;;4.62;82.88
84959;BME280;75256;48.062;11.662;2024-02-23T08:56:00;93709.47;;;4.64;82.76
84959;BME280;75256;48.062;11.662;2024-02-23T08:58:25;93709.66;;;4.69;80.97
84959;BME280;75256;48.062;11.662;2024-02-23T09:00:53;93709.03;;;4.65;81.94
84959;BME280;75256;48.062;11.662;2024-02-23T09:03:18;93711.00;;;4.65;81.99
84959;BME280;75256;48.062;11.662;2024-02-23T09:05:44;93717.59;;;4.64;81.32
84959;BME280;75256;48.062;11.662;2024-02-23T09:08:12;93720.00;;;4.62;82.94
84959;BME280;75256;48.062;11.662;2024-02-23T09:10:37;93734.25;;;4.62;79.48
84959;BME280;75256;48.062;11.662;2024-02-23T09:13:05;93734.56;;;4.64;81.03
84959;BME280;75256;48.062;11.662;2024-02-23T09:15:33;93753.41;;;4.46;80.45
84959;BME280;75256;48.062;11.662;2024-02-23T09:18:00;93754.44;;;4.40;81.34
84959;BME280;75256;48.062;11.662;2024-02-23T09:20:28;93759.25;;;4.45;81.61
84959;BME280;75256;48.062;11.662;2024-02-23T09:22:53;93762.56;;;4.49;83.08
84959;BME280;75256;48.062;11.662;2024-02-23T09:25:19;93755.97;;;4.50;80.06
84959;BME280;75256;48.062;11.662;2024-02-23T09:27:46;93770.97;;;4.51;82.71
84959;BME280;75256;48.062;11.662;2024-02-23T09:30:13;93767.38;;;4.54;80.74
84959;BME280;75256;48.062;11.662;2024-02-23T09:32:39;93777.00;;;4.55;83.33
84959;BME280;75256;48.062;11.662;2024-02-23T09:35:04;93769.59;;;4.46;80.44
84959;BME280;75256;48.062;11.662;2024-02-23T09:37:33;93774.88;;;4.50;81.42
84959;BME280;75256;48.062;11.662;2024-02-23T09:39:59;93778.19;;;4.54;80.48
84959;BME280;75256;48.062;11.662;2024-02-23T09:42:24;93769.63;;;4.55;83.97
84959;BME280;75256;48.062;11.662;2024-02-23T09:44:57;93781.19;;;4.56;82.24
84959;BME280;75256;48.062;11.662;2024-02-23T09:47:25;93773.59;;;4.33;81.26
84959;BME280;75256;48.062;11.662;2024-02-23T09:49:52;93768.63;;;4.31;82.35
84959;BME280;75256;48.062;11.662;2024-02-23T09:52:19;93766.81;;;4.28;83.16
84959;BME280;75256;48.062;11.662;2024-02-23T09:54:48;93756.16;;;4.25;83.85
84959;BME280;75256;48.062;11.662;2024-02-23T09:57:19;93763.63;;;4.21;83.38
84959;BME280;75256;48.062;11.662;2024-02-23T09:59:45;93757.97;;;4.28;83.90
84959;BME280;75256;48.062;11.662;2024-02-23T10:02:15;93764.00;;;4.32;84.73
84959;BME280;75256;48.062;11.662;2024-02-23T10:04:41;93779.63;;;4.37;84.41
84959;BME280;75256;48.062;11.662;2024-02-23T10:07:16;93773.47;;;4.36;84.83
84959;BME280;75256;48.062;11.662;2024-02-23T10:09:41;93778.09;;;4.36;86.07
84959;BME280;75256;48.062;11.662;2024-02-23T10:12:07;93785.19;;;4.42;85.13
84959;BME280;75256;48.062;11.662;2024-02-23T10:14:35;93794.06;;;4.43;83.21
84959;BME280;75256;48.062;11.662;2024-02-23T10:17:03;93780.84;;;4.45;83.41
84959;BME280;75256;48.062;11.662;2024-02-23T10:19:29;93783.81;;;4.38;82.80
84959;BME280;75256;48.062;11.662;2024-02-23T10:21:55;93786.31;;;4.32;81.80
84959;BME280;75256;48.062;11.662;2024-02-23T10:24:22;93777.22;;;4.39;82.22
84959;BME280;75256;48.062;11.662;2024-02-23T10:26:53;93768.81;;;4.37;83.06
84959;BME280;75256;48.062;11.662;2024-02-23T10:29:18;93769.81;;;4.30;83.79
84959;BME280;75256;48.062;11.662;2024-02-23T10:31:46;93759.63;;;4.34;84.20
84959;BME280;75256;48.062;11.662;2024-02-23T10:34:14;93760.28;;;4.38;82.36
84959;BME280;75256;48.062;11.662;2024-02-23T10:36:43;93765.22;;;4.40;81.86
84959;BME280;75256;48.062;11.662;2024-02-23T10:39:10;93766.16;;;4.46;81.71
84959;BME280;75256;48.062;11.662;2024-02-23T10:41:44;93759.81;;;4.40;82.75
84959;BME280;75256;48.062;11.662;2024-02-23T10:44:11;93759.81;;;4.40;81.94
84959;BME280;75256;48.062;11.662;2024-02-23T10:46:40;93761.44;;;4.37;81.91
84959;BME280;75256;48.062;11.662;2024-02-23T10:49:06;93753.97;;;4.41;82.55
84959;BME280;75256;48.062;11.662;2024-02-23T10:51:33;93750.53;;;4.41;81.92
84959;BME280;75256;48.062;11.662;2024-02-23T10:53:59;93745.91;;;4.50;81.16
84959;BME280;75256;48.062;11.662;2024-02-23T10:56:28;93742.78;;;4.52;81.26
84959;BME280;75256;48.062;11.662;2024-02-23T10:58:53;93730.13;;;4.49;81.26
84959;BME280;75256;48.062;11.662;2024-02-23T11:01:20;93739.06;;;4.58;81.21
84959;BME280;75256;48.062;11.662;2024-02-23T11:03:49;93758.09;;;4.55;81.38
84959;BME280;75256;48.062;11.662;2024-02-23T11:06:16;93762.75;;;4.54;80.30
84959;BME280;75256;48.062;11.662;2024-02-23T11:08:48;93752.56;;;4.58;82.32
84959;BME280;75256;48.062;11.662;2024-02-23T11:11:18;93751.81;;;4.58;80.93
84959;BME280;75256;48.062;11.662;2024-02-23T11:13:46;93754.19;;;4.56;81.18
84959;BME280;75256;48.062;11.662;2024-02-23T11:16:21;93748.78;;;4.56;81.34
84959;BME280;75256;48.062;11.662;2024-02-23T11:18:47;93749.28;;;4.63;80.73
84959;BME280;75256;48.062;11.662;2024-02-23T11:21:12;93756.31;;;4.61;80.55
84959;BME280;75256;48.062;11.662;2024-02-23T11:23:41;93768.47;;;4.65;81.61
84959;BME280;75256;48.062;11.662;2024-02-23T11:26:14;93768.97;;;4.73;80.83
84959;BME280;75256;48.062;11.662;2024-02-23T11:28:52;93774.38;;;4.73;79.81
84959;BME280;75256;48.062;11.662;2024-02-23T11:31:24;93762.94;;;4.69;80.32
84959;BME280;75256;48.062;11.662;2024-02-23T11:33:56;93767.75;;;4.74;80.72
84959;BME280;75256;48.062;11.662;2024-02-23T11:38:57;93759.78;;;4.70;79.04
84959;BME280;75256;48.062;11.662;2024-02-23T11:41:24;93753.47;;;4.64;79.96
84959;BME280;75256;48.062;11.662;2024-02-23T11:43:54;93754.84;;;4.69;79.31
84959;BME280;75256;48.062;11.662;2024-02-23T11:46:28;93756.25;;;4.82;81.00
84959;BME280;75256;48.062;11.662;2024-02-23T11:48:54;93749.59;;;4.74;78.05
84959;BME280;75256;48.062;11.662;2024-02-23T11:51:23;93765.41;;;4.85;78.97
84959;BME280;75256;48.062;11.662;2024-02-23T11:53:54;93762.06;;;4.72;76.11
84959;BME280;75256;48.062;11.662;2024-02-23T11:56:22;93768.06;;;4.67;77.72
84959;BME280;75256;48.062;11.662;2024-02-23T11:58:47;93761.94;;;4.75;77.52
84959;BME280;75256;48.062;11.662;2024-02-23T12:01:13;93756.53;;;4.75;75.71
84959;BME280;75256;48.062;11.662;2024-02-23T12:03:38;93763.84;;;4.66;75.20
84959;BME280;75256;48.062;11.662;2024-02-23T12:06:05;93751.81;;;4.58;75.50
84959;BME280;75256;48.062;11.662;2024-02-23T12:08:31;93763.25;;;4.62;75.88
84959;BME280;75256;48.062;11.662;2024-02-23T12:11:08;93764.59;;;4.66;75.65
84959;BME280;75256;48.062;11.662;2024-02-23T12:13:37;93761.13;;;4.57;75.08
84959;BME280;75256;48.062;11.662;2024-02-23T12:16:02;93759.47;;;4.59;76.34
84959;BME280;75256;48.062;11.662;2024-02-23T12:18:28;93772.84;;;4.63;76.13
84959;BME280;75256;48.062;11.662;2024-02-23T12:21:07;93765.78;;;4.65;75.31
84959;BME280;75256;48.062;11.662;2024-02-23T12:23:44;93766.53;;;4.66;75.42
84959;BME280;75256;48.062;11.662;2024-02-23T12:26:13;93753.16;;;4.62;75.31
84959;BME280;75256;48.062;11.662;2024-02-23T12:28:44;93752.00;;;4.72;76.75
84959;BME280;75256;48.062;11.662;2024-02-23T12:31:10;93742.72;;;4.82;75.55
84959;BME280;75256;48.062;11.662;2024-02-23T12:33:37;93744.38;;;4.80;75.87
84959;BME280;75256;48.062;11.662;2024-02-23T12:36:06;93736.38;;;4.67;76.00
84959;BME280;75256;48.062;11.662;2024-02-23T12:38:35;93724.50;;;4.65;74.88
84959;BME280;75256;48.062;11.662;2024-02-23T12:41:02;93717.03;;;4.78;75.49
84959;BME280;75256;48.062;11.662;2024-02-23T12:43:28;93716.13;;;4.72;73.77
84959;BME280;75256;48.062;11.662;2024-02-23T12:45:57;93725.47;;;4.80;75.08
84959;BME280;75256;48.062;11.662;2024-02-23T12:48:23;93725.28;;;4.74;74.99
84959;BME280;75256;48.062;11.662;2024-02-23T12:50:51;93732.78;;;4.70;75.78
84959;BME280;75256;48.062;11.662;2024-02-23T12:53:39;93733.66;;;4.58;74.25
84959;BME280;75256;48.062;11.662;2024-02-23T12:56:10;93707.81;;;4.57;76.13
84959;BME280;75256;48.062;11.662;2024-02-23T12:58:43;93700.19;;;4.65;74.46
84959;BME280;75256;48.062;11.662;2024-02-23T13:01:10;93694.22;;;4.70;74.20